Time,TemperatureF,DewpointF,PressureIn,WindDirection,WindDirectionDegrees,WindSpeedMPH,WindSpeedGustMPH,Humidity,HourlyPrecipIn,Conditions,Clouds,dailyrainin,SoftwareType,DateUTC
2013-07-28 00:10:00,70.7,68.0,29.85,SE,128,2.0,4.0,92,0.00,,,0.00,weatherlink.com 1.10,2013-07-28 04:10:00,
2013-07-28 00:25:00,70.6,68.0,29.85,SSE,147,0.0,3.0,91,0.00,,,0.00,weatherlink.com 1.10,2013-07-28 04:25:00,
2013-07-28 00:40:00,70.4,68.0,29.84,SE,129,2.0,3.0,91,0.00,,,0.00,weatherlink.com 1.10,2013-07-28 04:40:00,
2013-07-28 00:55:00,70.3,68.0,29.84,SE,128,0.0,3.0,92,0.00,,,0.00,weatherlink.com 1.10,2013-07-28 04:55:00,
2013-07-28 01:10:00,70.0,68.0,29.83,SE,128,1.0,1.0,92,0.00,,,0.00,weatherlink.com 1.10,2013-07-28 05:10:00,
2013-07-28 01:25:00,69.7,67.0,29.83,SSE,150,0.0,1.0,92,0.00,,,0.00,weatherlink.com 1.10,2013-07-28 05:25:00,
2013-07-28 01:40:00,69.4,67.0,29.83,SSE,158,0.0,1.0,93,0.00,,,0.00,weatherlink.com 1.10,2013-07-28 05:40:00,
2013-07-28 01:55:00,69.3,68.0,29.83,South,175,1.0,1.0,94,0.00,,,0.00,weatherlink.com 1.10,2013-07-28 05:55:00,
2013-07-28 02:10:00,69.2,68.0,29.83,West,264,0.0,0.0,94,0.00,,,0.00,weatherlink.com 1.10,2013-07-28 06:10:00,
2013-07-28 02:25:00,69.0,67.0,29.83,West,264,0.0,0.0,94,0.00,,,0.00,weatherlink.com 1.10,2013-07-28 06:25:00,
2013-07-28 02:55:00,68.6,67.0,29.82,West,264,0.0,0.0,94,0.00,,,0.00,weatherlink.com 1.10,2013-07-28 06:55:00,
2013-07-28 03:10:00,68.3,67.0,29.82,West,264,0.0,1.0,95,0.00,,,0.00,weatherlink.com 1.10,2013-07-28 07:10:00,
2013-07-28 03:25:00,67.9,67.0,29.81,ENE,78,0.0,2.0,95,0.00,,,0.00,weatherlink.com 1.10,2013-07-28 07:25:00,
2013-07-28 03:40:00,67.7,66.0,29.82,ENE,78,0.0,0.0,95,0.00,,,0.00,weatherlink.com 1.10,2013-07-28 07:40:00,
2013-07-28 03:55:00,67.4,66.0,29.81,ENE,78,0.0,0.0,95,0.00,,,0.00,weatherlink.com 1.10,2013-07-28 07:55:00,
2013-07-28 04:10:00,67.2,66.0,29.82,ENE,78,0.0,1.0,96,0.00,,,0.00,weatherlink.com 1.10,2013-07-28 08:10:00,
2013-07-28 04:25:00,67.0,66.0,29.81,ENE,78,0.0,0.0,96,0.00,,,0.00,weatherlink.com 1.10,2013-07-28 08:25:00,
2013-07-28 04:40:00,67.0,66.0,29.82,ENE,78,0.0,0.0,96,0.00,,,0.00,weatherlink.com 1.10,2013-07-28 08:40:00,
2013-07-28 04:55:00,66.9,66.0,29.82,ENE,78,0.0,0.0,96,0.00,,,0.00,weatherlink.com 1.10,2013-07-28 08:55:00,
2013-07-28 05:10:00,66.7,66.0,29.82,ENE,78,0.0,0.0,97,0.00,,,0.00,weatherlink.com 1.10,2013-07-28 09:10:00,
2013-07-28 05:25:00,66.7,66.0,29.82,ENE,78,0.0,0.0,97,0.00,,,0.00,weatherlink.com 1.10,2013-07-28 09:25:00,
2013-07-28 05:40:00,66.7,66.0,29.82,ENE,78,0.0,0.0,97,0.00,,,0.00,weatherlink.com 1.10,2013-07-28 09:40:00,
2013-07-28 05:55:00,66.7,66.0,29.83,ENE,78,0.0,0.0,97,0.00,,,0.00,weatherlink.com 1.10,2013-07-28 09:55:00,
2013-07-28 06:10:00,66.8,66.0,29.84,ENE,78,0.0,0.0,98,0.00,,,0.00,weatherlink.com 1.10,2013-07-28 10:10:00,
2013-07-28 06:25:00,66.8,66.0,29.84,ENE,78,0.0,0.0,98,0.00,,,0.00,weatherlink.com 1.10,2013-07-28 10:25:00,
2013-07-28 06:40:00,67.0,67.0,29.84,ENE,78,0.0,0.0,98,0.00,,,0.00,weatherlink.com 1.10,2013-07-28 10:40:00,
2013-07-28 06:55:00,66.9,66.0,29.85,ENE,78,0.0,0.0,98,0.00,,,0.00,weatherlink.com 1.10,2013-07-28 10:55:00,
2013-07-28 07:10:00,67.1,67.0,29.85,ENE,78,0.0,0.0,98,0.00,,,0.00,weatherlink.com 1.10,2013-07-28 11:10:00,
2013-07-28 07:25:00,67.6,67.0,29.85,NNE,23,0.0,0.0,98,0.00,,,0.00,weatherlink.com 1.10,2013-07-28 11:25:00,
2013-07-28 07:40:00,67.9,67.0,29.86,WNW,293,0.0,2.0,98,0.00,,,0.00,weatherlink.com 1.10,2013-07-28 11:40:00,
2013-07-28 07:55:00,68.1,68.0,29.86,WNW,293,0.0,0.0,98,0.00,,,0.00,weatherlink.com 1.10,2013-07-28 11:55:00,
2013-07-28 08:10:00,68.5,68.0,29.86,WNW,293,0.0,0.0,98,0.00,,,0.00,weatherlink.com 1.10,2013-07-28 12:10:00,
2013-07-28 08:25:00,69.5,69.0,29.85,East,98,0.0,2.0,97,0.00,,,0.00,weatherlink.com 1.10,2013-07-28 12:25:00,
2013-07-28 08:40:00,71.7,69.0,29.85,SE,140,1.0,2.0,92,0.00,,,0.00,weatherlink.com 1.10,2013-07-28 12:40:00,
2013-07-28 08:55:00,74.2,69.0,29.85,West,270,2.0,7.0,83,0.00,,,0.00,weatherlink.com 1.10,2013-07-28 12:55:00,
2013-07-28 09:10:00,74.4,69.0,29.86,NNW,331,3.0,6.0,83,0.00,,,0.00,weatherlink.com 1.10,2013-07-28 13:10:00,
2013-07-28 09:25:00,74.1,68.0,29.85,NW,326,0.0,6.0,80,0.00,,,0.00,weatherlink.com 1.10,2013-07-28 13:25:00,
2013-07-28 09:40:00,74.1,68.0,29.86,WSW,248,2.0,7.0,82,0.00,,,0.00,weatherlink.com 1.10,2013-07-28 13:40:00,
2013-07-28 09:55:00,74.1,68.0,29.85,NNW,328,2.0,5.0,80,0.00,,,0.00,weatherlink.com 1.10,2013-07-28 13:55:00,
2013-07-28 10:11:00,74.3,68.0,29.86,WNW,283,0.0,7.0,81,0.00,,,0.00,weatherlink.com 1.10,2013-07-28 14:11:00,
2013-07-28 10:26:00,74.2,68.0,29.86,NW,312,1.0,7.0,80,0.00,,,0.00,weatherlink.com 1.10,2013-07-28 14:26:00,
2013-07-28 10:41:00,74.0,67.0,29.85,NW,317,1.0,4.0,79,0.00,,,0.00,weatherlink.com 1.10,2013-07-28 14:41:00,
2013-07-28 10:56:00,74.4,68.0,29.86,NW,310,1.0,3.0,80,0.00,,,0.00,weatherlink.com 1.10,2013-07-28 14:56:00,
2013-07-28 11:11:00,75.1,67.0,29.85,North,6,1.0,4.0,76,0.00,,,0.00,weatherlink.com 1.10,2013-07-28 15:11:00,
2013-07-28 11:26:00,76.2,67.0,29.85,SSE,165,0.0,3.0,74,0.00,,,0.00,weatherlink.com 1.10,2013-07-28 15:26:00,
2013-07-28 11:41:00,76.9,67.0,29.86,NNW,330,0.0,2.0,72,0.00,,,0.00,weatherlink.com 1.10,2013-07-28 15:41:00,
2013-07-28 11:56:00,77.2,67.0,29.86,NE,46,3.0,4.0,71,0.00,,,0.00,weatherlink.com 1.10,2013-07-28 15:56:00,
2013-07-28 12:11:00,76.6,67.0,29.86,SSE,165,0.0,2.0,73,0.00,,,0.00,weatherlink.com 1.10,2013-07-28 16:11:00,
2013-07-28 12:26:00,76.9,66.0,29.87,West,281,0.0,1.0,69,0.00,,,0.00,weatherlink.com 1.10,2013-07-28 16:26:00,
2013-07-28 12:41:00,76.7,66.0,29.87,ESE,123,1.0,4.0,70,0.00,,,0.00,weatherlink.com 1.10,2013-07-28 16:41:00,
2013-07-28 12:56:00,76.5,68.0,29.87,East,101,0.0,1.0,75,0.00,,,0.00,weatherlink.com 1.10,2013-07-28 16:56:00,
2013-07-28 13:11:00,77.8,69.0,29.87,NNE,30,3.0,6.0,75,0.00,,,0.00,weatherlink.com 1.10,2013-07-28 17:11:00,
2013-07-28 13:26:00,78.5,70.0,29.86,East,86,0.0,7.0,74,0.00,,,0.00,weatherlink.com 1.10,2013-07-28 17:26:00,
2013-07-28 14:11:00,78.7,68.0,29.86,NE,37,5.0,5.0,70,0.00,,,0.00,weatherlink.com 1.10,2013-07-28 18:11:00,
2013-07-28 14:26:00,79.6,68.0,29.85,NE,46,0.0,6.0,68,0.00,,,0.00,weatherlink.com 1.10,2013-07-28 18:26:00,
2013-07-28 14:41:00,81.2,68.0,29.85,NNE,31,4.0,6.0,64,0.00,,,0.00,weatherlink.com 1.10,2013-07-28 18:41:00,
2013-07-28 14:56:00,80.0,67.0,29.84,ESE,103,5.0,5.0,65,0.00,,,0.00,weatherlink.com 1.10,2013-07-28 18:56:00,
2013-07-28 15:11:00,80.2,69.0,29.84,North,7,0.0,7.0,68,0.00,,,0.00,weatherlink.com 1.10,2013-07-28 19:11:00,
2013-07-28 15:42:00,80.8,68.0,29.83,ENE,63,3.0,8.0,66,0.00,,,0.00,weatherlink.com 1.10,2013-07-28 19:42:00,
2013-07-28 16:26:00,81.6,68.0,29.82,SSE,147,3.0,7.0,64,0.00,,,0.00,weatherlink.com 1.10,2013-07-28 20:26:00,
2013-07-28 16:41:00,80.9,68.0,29.82,ESE,122,5.0,9.0,66,0.00,,,0.00,weatherlink.com 1.10,2013-07-28 20:41:00,
2013-07-28 16:56:00,80.5,68.0,29.83,ENE,61,3.0,6.0,66,0.00,,,0.00,weatherlink.com 1.10,2013-07-28 20:56:00,
2013-07-28 17:11:00,79.9,69.0,29.83,ESE,107,2.0,8.0,70,0.00,,,0.00,weatherlink.com 1.10,2013-07-28 21:11:00,
2013-07-28 17:26:00,79.1,68.0,29.83,ESE,104,0.0,3.0,69,0.00,,,0.00,weatherlink.com 1.10,2013-07-28 21:26:00,
2013-07-28 17:41:00,79.7,69.0,29.83,ESE,121,2.0,5.0,70,0.00,,,0.00,weatherlink.com 1.10,2013-07-28 21:41:00,
2013-07-28 17:56:00,81.5,69.0,29.83,East,91,2.0,7.0,66,0.00,,,0.00,weatherlink.com 1.10,2013-07-28 21:56:00,
2013-07-28 18:11:00,80.3,70.0,29.84,ESE,122,2.0,6.0,70,0.00,,,0.00,weatherlink.com 1.10,2013-07-28 22:11:00,
2013-07-28 18:26:00,78.9,70.0,29.84,East,96,0.0,4.0,73,0.00,,,0.00,weatherlink.com 1.10,2013-07-28 22:26:00,
2013-07-28 18:41:00,77.9,69.0,29.83,ESE,107,2.0,3.0,74,0.00,,,0.00,weatherlink.com 1.10,2013-07-28 22:41:00,
2013-07-28 18:56:00,77.9,70.0,29.83,ESE,117,0.0,2.0,76,0.00,,,0.00,weatherlink.com 1.10,2013-07-28 22:56:00,
2013-07-28 19:11:00,77.1,70.0,29.83,ESE,117,0.0,0.0,78,0.00,,,0.00,weatherlink.com 1.10,2013-07-28 23:11:00,
2013-07-28 19:26:00,76.0,70.0,29.83,ESE,117,0.0,0.0,81,0.00,,,0.00,weatherlink.com 1.10,2013-07-28 23:26:00,
2013-07-28 19:41:00,75.5,70.0,29.84,ESE,119,1.0,3.0,82,0.00,,,0.00,weatherlink.com 1.10,2013-07-28 23:41:00,
2013-07-28 19:56:00,76.2,70.0,29.86,NW,313,2.0,4.0,80,0.00,,,0.00,weatherlink.com 1.10,2013-07-28 23:56:00,
2013-07-28 20:11:00,73.4,65.0,29.86,North,2,1.0,12.0,76,0.04,,,0.04,weatherlink.com 1.10,2013-07-29 00:11:00,
2013-07-28 20:26:00,70.6,66.0,29.87,SE,134,2.0,5.0,86,0.04,,,0.04,weatherlink.com 1.10,2013-07-29 00:26:00,
2013-07-28 20:41:00,69.3,66.0,29.87,NNW,327,0.0,3.0,90,0.04,,,0.04,weatherlink.com 1.10,2013-07-29 00:41:00,
2013-07-28 20:57:00,68.5,66.0,29.88,NNW,331,0.0,0.0,92,0.04,,,0.04,weatherlink.com 1.10,2013-07-29 00:57:00,
2013-07-28 21:12:00,67.8,66.0,29.89,NNW,331,0.0,1.0,94,0.00,,,0.04,weatherlink.com 1.10,2013-07-29 01:12:00,
2013-07-28 21:27:00,67.4,66.0,29.90,NNE,30,0.0,2.0,94,0.00,,,0.04,weatherlink.com 1.10,2013-07-29 01:27:00,
2013-07-28 21:42:00,67.1,66.0,29.91,ESE,107,1.0,2.0,95,0.00,,,0.04,weatherlink.com 1.10,2013-07-29 01:42:00,
2013-07-28 21:57:00,67.2,66.0,29.91,NW,310,0.0,3.0,96,0.00,,,0.04,weatherlink.com 1.10,2013-07-29 01:57:00,
2013-07-28 22:27:00,66.9,66.0,29.92,NW,310,0.0,0.0,96,0.00,,,0.04,weatherlink.com 1.10,2013-07-29 02:27:00,
2013-07-28 22:42:00,66.7,66.0,29.93,NW,310,0.0,0.0,96,0.00,,,0.04,weatherlink.com 1.10,2013-07-29 02:42:00,
2013-07-28 22:57:00,66.4,66.0,29.93,NW,310,0.0,0.0,97,0.00,,,0.04,weatherlink.com 1.10,2013-07-29 02:57:00,
2013-07-28 23:12:00,66.0,65.0,29.93,NW,310,0.0,0.0,96,0.00,,,0.04,weatherlink.com 1.10,2013-07-29 03:12:00,
2013-07-28 23:27:00,65.6,65.0,29.93,NW,310,0.0,0.0,96,0.00,,,0.04,weatherlink.com 1.10,2013-07-29 03:27:00,
2013-07-28 23:42:00,65.1,64.0,29.94,NW,310,0.0,0.0,96,0.00,,,0.04,weatherlink.com 1.10,2013-07-29 03:42:00,
2013-07-28 23:57:00,64.6,64.0,29.95,NNW,335,2.0,2.0,96,0.00,,,0.04,weatherlink.com 1.10,2013-07-29 03:57:00,